Time;durP1;ratioP1;P1;durP2;ratioP2;P2;SDS_P1;SDS_P2;PMS_P1;PMS_P2;Temp;Humidity;BMP_temperature;BMP_pressure;BME280_temperature;BME280_humidity;BME280_pressure;Samples;Min_cycle;Max_cycle;Signal;HPM_P1;HPM_P2
2021/04/27 00:01:51;;;;;;;3.10;2.60;;;12.30;64.10;;;;;;5102751;28;20185;-70
2021/04/27 00:04:18;;;;;;;2.33;1.90;;;12.30;64.20;;;;;;5109799;28;21099;-71
2021/04/27 00:06:44;;;;;;;2.80;2.35;;;12.30;64.20;;;;;;5100142;28;20197;-70
2021/04/27 00:09:10;;;;;;;3.65;2.30;;;12.30;64.20;;;;;;5095721;28;20197;-71
2021/04/27 00:11:37;;;;;;;2.53;1.95;;;12.30;64.30;;;;;;5108016;28;20277;-70
2021/04/27 00:14:05;;;;;;;2.50;2.28;;;12.30;64.40;;;;;;5090748;28;20201;-71
2021/04/27 00:16:31;;;;;;;2.40;2.13;;;12.20;64.30;;;;;;5091950;28;20195;-71
2021/04/27 00:18:58;;;;;;;2.50;2.30;;;12.20;64.30;;;;;;5102323;28;20286;-71
2021/04/27 00:21:25;;;;;;;1.90;1.80;;;12.20;64.40;;;;;;5104184;28;20262;-70
2021/04/27 00:23:51;;;;;;;2.42;2.22;;;12.20;64.50;;;;;;5097473;28;20229;-70
2021/04/27 00:26:17;;;;;;;3.00;2.17;;;12.20;64.50;;;;;;5088496;28;20592;-70
2021/04/27 00:28:44;;;;;;;3.05;1.88;;;12.20;64.60;;;;;;5106734;28;20246;-70
2021/04/27 00:31:10;;;;;;;2.58;2.38;;;12.10;64.60;;;;;;5090280;28;20213;-71
2021/04/27 00:33:36;;;;;;;2.30;2.03;;;12.10;64.60;;;;;;5105168;28;20220;-70
2021/04/27 00:36:03;;;;;;;3.28;1.80;;;12.10;64.70;;;;;;5094373;28;20190;-69
2021/04/27 00:38:32;;;;;;;3.63;3.33;;;12.10;64.80;;;;;;5097636;28;20209;-71
2021/04/27 00:40:58;;;;;;;2.20;2.00;;;12.10;64.90;;;;;;5096612;28;20201;-70
2021/04/27 00:43:24;;;;;;;2.25;2.05;;;12.10;64.90;;;;;;5108596;28;20193;-70
2021/04/27 00:45:50;;;;;;;2.30;2.10;;;12.00;64.90;;;;;;5102414;28;20219;-72
2021/04/27 00:48:17;;;;;;;3.58;1.80;;;12.00;64.90;;;;;;5098058;28;20265;-72
2021/04/27 00:50:43;;;;;;;2.58;2.38;;;12.00;64.90;;;;;;5101890;28;20282;-72
2021/04/27 00:53:11;;;;;;;2.25;1.90;;;12.00;65.00;;;;;;5098193;28;20193;-71
2021/04/27 00:55:38;;;;;;;2.22;1.85;;;12.00;65.00;;;;;;5092917;28;20202;-71
2021/04/27 00:58:05;;;;;;;3.42;2.72;;;12.00;65.10;;;;;;5111325;28;20224;-70
2021/04/27 01:00:35;;;;;;;2.95;2.40;;;12.00;65.10;;;;;;5109687;28;20194;-71
2021/04/27 01:03:03;;;;;;;2.88;2.47;;;11.90;65.10;;;;;;5100591;28;20207;-71
2021/04/27 01:05:32;;;;;;;3.00;2.38;;;11.90;65.20;;;;;;5112383;28;20189;-71
2021/04/27 01:08:05;;;;;;;2.13;1.83;;;11.90;65.20;;;;;;5098383;28;20719;-71
2021/04/27 01:10:38;;;;;;;2.38;1.63;;;11.90;65.30;;;;;;5103111;28;20213;-71
2021/04/27 01:13:10;;;;;;;2.20;1.90;;;11.90;65.30;;;;;;5094233;28;20193;-70
2021/04/27 01:15:36;;;;;;;5.28;1.90;;;11.80;65.20;;;;;;5095624;28;20851;-71
2021/04/27 01:18:03;;;;;;;3.72;2.22;;;11.80;65.30;;;;;;5103377;28;20576;-71
2021/04/27 01:20:39;;;;;;;3.75;1.40;;;11.80;65.30;;;;;;5099079;28;20768;-71
2021/04/27 01:23:19;;;;;;;2.03;1.80;;;11.80;65.30;;;;;;5093204;28;20237;-71
2021/04/27 01:25:50;;;;;;;2.38;1.60;;;11.80;65.40;;;;;;5095030;28;20208;-71
2021/04/27 01:28:19;;;;;;;2.13;1.77;;;11.80;65.40;;;;;;5093173;28;20197;-70
2021/04/27 01:30:46;;;;;;;3.50;1.65;;;11.80;65.40;;;;;;5091642;28;20213;-71
2021/04/27 01:33:15;;;;;;;2.22;1.90;;;11.70;65.40;;;;;;5104353;28;20676;-71
2021/04/27 01:35:42;;;;;;;2.40;1.88;;;11.70;65.50;;;;;;5112425;28;20265;-71
2021/04/27 01:38:09;;;;;;;3.25;1.90;;;11.70;65.60;;;;;;5108994;28;20624;-70
2021/04/27 01:40:35;;;;;;;2.00;1.90;;;11.70;65.70;;;;;;5099894;28;20657;-71
2021/04/27 01:43:04;;;;;;;2.60;2.22;;;11.70;65.70;;;;;;5098497;28;20544;-71
2021/04/27 01:45:32;;;;;;;2.08;1.75;;;11.60;65.80;;;;;;5095434;28;20197;-71
2021/04/27 01:47:59;;;;;;;2.42;2.10;;;11.60;65.80;;;;;;5096430;28;20251;-71
2021/04/27 01:50:26;;;;;;;2.38;1.70;;;11.60;65.80;;;;;;5093728;28;20607;-71
2021/04/27 01:52:52;;;;;;;4.55;2.28;;;11.60;66.00;;;;;;5112061;28;20193;-71
2021/04/27 01:55:20;;;;;;;4.75;1.90;;;11.60;66.00;;;;;;5093053;28;20278;-71
2021/04/27 01:57:46;;;;;;;1.70;1.60;;;11.60;66.00;;;;;;5098303;28;20533;-71
2021/04/27 02:00:15;;;;;;;3.30;2.15;;;11.60;66.00;;;;;;5104011;28;20201;-70
2021/04/27 02:02:43;;;;;;;2.70;1.73;;;11.50;65.90;;;;;;5092264;28;20202;-70
2021/04/27 02:05:11;;;;;;;2.55;2.10;;;11.50;66.10;;;;;;5092015;28;20202;-70
2021/04/27 02:07:37;;;;;;;4.40;1.83;;;11.50;66.00;;;;;;5105257;28;20204;-70
2021/04/27 02:10:06;;;;;;;2.33;2.13;;;11.50;66.10;;;;;;5105204;28;20935;-70
2021/04/27 02:12:34;;;;;;;1.75;1.65;;;11.50;66.10;;;;;;5101503;28;20603;-70
2021/04/27 02:15:01;;;;;;;2.30;2.10;;;11.50;66.20;;;;;;5092382;28;20220;-70
2021/04/27 02:17:31;;;;;;;3.13;1.75;;;11.50;66.20;;;;;;5095382;28;20201;-71
2021/04/27 02:20:01;;;;;;;2.67;1.90;;;11.40;66.20;;;;;;5092616;28;20201;-70
2021/04/27 02:22:29;;;;;;;2.40;2.20;;;11.40;66.20;;;;;;5092259;28;20205;-71
2021/04/27 02:24:57;;;;;;;1.50;1.40;;;11.40;66.30;;;;;;5089829;28;20201;-70
2021/04/27 02:27:24;;;;;;;1.98;1.65;;;11.40;67.10;;;;;;5092009;28;20194;-70
2021/04/27 02:29:52;;;;;;;2.60;1.98;;;11.40;66.40;;;;;;5111510;28;20211;-70
2021/04/27 02:32:18;;;;;;;1.85;1.63;;;11.30;66.40;;;;;;5091457;28;20217;-70
2021/04/27 02:34:44;;;;;;;2.05;1.70;;;11.30;66.50;;;;;;5100208;28;20209;-70
2021/04/27 02:37:11;;;;;;;1.75;1.65;;;11.30;66.50;;;;;;5097013;28;20213;-70
2021/04/27 02:39:37;;;;;;;2.80;1.70;;;11.30;66.50;;;;;;5106432;28;20205;-70
2021/04/27 02:42:05;;;;;;;2.15;1.55;;;11.30;66.60;;;;;;5110205;28;20196;-70
2021/04/27 02:44:31;;;;;;;1.73;1.42;;;11.30;66.70;;;;;;5102017;28;20201;-70
2021/04/27 02:46:57;;;;;;;4.03;2.13;;;11.30;66.80;;;;;;5095030;28;20189;-70
2021/04/27 02:49:24;;;;;;;1.80;1.70;;;11.30;66.70;;;;;;5103651;28;20579;-70
2021/04/27 02:51:50;;;;;;;2.15;1.70;;;11.30;66.60;;;;;;5098796;28;20213;-71
2021/04/27 02:54:17;;;;;;;1.92;1.70;;;11.20;66.50;;;;;;5091972;28;20255;-71
2021/04/27 02:56:43;;;;;;;2.22;2.03;;;11.20;66.60;;;;;;5105373;28;20250;-71
2021/04/27 02:59:10;;;;;;;2.10;1.45;;;11.20;66.60;;;;;;5099336;28;20193;-71
2021/04/27 03:01:37;;;;;;;2.78;1.90;;;11.20;66.80;;;;;;5096861;28;20546;-71
2021/04/27 03:04:05;;;;;;;2.05;1.83;;;11.20;66.70;;;;;;5102986;28;20533;-70
2021/04/27 03:06:31;;;;;;;2.00;1.80;;;11.20;66.70;;;;;;5097318;28;20246;-70
2021/04/27 03:08:58;;;;;;;1.63;1.52;;;11.20;66.80;;;;;;5105318;28;20592;-70
2021/04/27 03:11:25;;;;;;;2.38;1.77;;;11.20;66.80;;;;;;5096681;28;20217;-70
2021/04/27 03:13:53;;;;;;;1.80;1.40;;;11.10;66.60;;;;;;5091473;28;20205;-70
2021/04/27 03:16:20;;;;;;;2.65;2.45;;;11.10;66.60;;;;;;5091389;28;20209;-70
2021/04/27 03:18:46;;;;;;;1.80;1.67;;;11.10;66.60;;;;;;5099101;28;20201;-70
2021/04/27 03:21:12;;;;;;;2.65;1.92;;;11.10;66.80;;;;;;5109445;28;20199;-70
2021/04/27 03:23:38;;;;;;;2.33;1.70;;;11.10;66.80;;;;;;5095264;28;20282;-70
2021/04/27 03:26:05;;;;;;;2.17;1.60;;;11.00;66.80;;;;;;5093031;28;20212;-70
2021/04/27 03:28:32;;;;;;;1.77;1.45;;;11.00;66.90;;;;;;5107028;28;20196;-70
2021/04/27 03:30:58;;;;;;;2.15;1.75;;;11.10;67.00;;;;;;5105024;28;20221;-70
2021/04/27 03:33:25;;;;;;;1.95;1.63;;;11.00;66.70;;;;;;5100957;28;20533;-70
2021/04/27 03:35:51;;;;;;;2.30;2.10;;;11.00;66.70;;;;;;5111420;28;20226;-70
2021/04/27 03:38:17;;;;;;;3.47;2.65;;;11.00;66.80;;;;;;5103508;28;20549;-70
2021/04/27 03:40:44;;;;;;;3.65;1.70;;;11.00;67.00;;;;;;5100756;28;20201;-69
2021/04/27 03:43:10;;;;;;;1.85;1.70;;;10.90;66.90;;;;;;5091429;28;20232;-70
2021/04/27 03:45:37;;;;;;;2.70;1.50;;;10.90;67.00;;;;;;5091123;28;20205;-69
2021/04/27 03:48:06;;;;;;;2.72;2.10;;;10.90;67.00;;;;;;5099573;28;20668;-69
2021/04/27 03:50:32;;;;;;;2.15;1.63;;;10.90;67.00;;;;;;5100174;28;20204;-70
2021/04/27 03:52:58;;;;;;;2.35;1.50;;;10.90;67.10;;;;;;5110040;28;20254;-70
2021/04/27 03:55:25;;;;;;;1.83;1.50;;;10.90;67.10;;;;;;5109278;28;20200;-70
2021/04/27 03:57:51;;;;;;;5.60;1.95;;;10.80;67.30;;;;;;5091795;28;20201;-70
2021/04/27 04:00:18;;;;;;;2.30;1.60;;;10.80;67.10;;;;;;5105741;28;20207;-70
2021/04/27 04:02:45;;;;;;;3.10;1.65;;;10.80;67.00;;;;;;5097420;28;20197;-69
2021/04/27 04:05:12;;;;;;;2.13;1.60;;;10.80;67.10;;;;;;5099635;28;20193;-70
2021/04/27 04:07:39;;;;;;;2.28;1.45;;;10.80;67.00;;;;;;5107741;28;20212;-70
2021/04/27 04:10:07;;;;;;;2.05;1.95;;;10.80;66.90;;;;;;5105254;28;20208;-70
2021/04/27 04:12:33;;;;;;;3.30;1.90;;;10.80;67.00;;;;;;5111300;28;20212;-69
2021/04/27 04:14:59;;;;;;;1.73;1.52;;;10.80;67.00;;;;;;5104309;28;20198;-69
2021/04/27 04:17:26;;;;;;;3.08;2.38;;;10.80;67.20;;;;;;5093347;28;20691;-70
2021/04/27 04:19:54;;;;;;;1.38;1.13;;;10.80;67.10;;;;;;5090830;28;20193;-69
2021/04/27 04:22:20;;;;;;;2.60;1.75;;;10.70;67.00;;;;;;5090020;28;20547;-69
2021/04/27 04:24:46;;;;;;;1.75;1.35;;;10.70;67.20;;;;;;5098930;28;20258;-69
2021/04/27 04:27:12;;;;;;;1.77;1.67;;;10.70;67.10;;;;;;5090482;28;20280;-70
2021/04/27 04:29:39;;;;;;;1.33;1.23;;;10.70;67.20;;;;;;5089419;28;20229;-70
2021/04/27 04:32:06;;;;;;;2.13;1.58;;;10.70;67.00;;;;;;5096191;28;20227;-70
2021/04/27 04:34:32;;;;;;;1.70;1.60;;;10.70;67.10;;;;;;5107140;28;20679;-70
2021/04/27 04:36:59;;;;;;;2.78;1.70;;;10.60;67.10;;;;;;5094122;28;20193;-70
2021/04/27 04:39:25;;;;;;;2.35;1.98;;;10.60;67.30;;;;;;5106373;28;20193;-69
2021/04/27 04:41:52;;;;;;;3.72;2.05;;;10.60;67.30;;;;;;5104197;28;20197;-70
2021/04/27 04:44:18;;;;;;;2.70;1.70;;;10.60;67.30;;;;;;5096756;28;20223;-69
2021/04/27 04:46:44;;;;;;;2.28;1.45;;;10.50;67.20;;;;;;5093902;28;20538;-70
2021/04/27 04:49:10;;;;;;;2.08;1.70;;;10.50;67.20;;;;;;5102566;28;20200;-69
2021/04/27 04:51:36;;;;;;;3.17;1.48;;;10.50;67.10;;;;;;5096874;28;20216;-70
2021/04/27 04:54:03;;;;;;;1.55;1.45;;;10.50;67.00;;;;;;5105995;28;20193;-69
2021/04/27 04:56:30;;;;;;;2.35;1.88;;;10.50;66.80;;;;;;5094091;28;20209;-70
2021/04/27 04:58:56;;;;;;;3.38;1.75;;;10.50;66.60;;;;;;5097472;28;20287;-70
2021/04/27 05:01:22;;;;;;;3.60;1.95;;;10.50;66.70;;;;;;5102697;28;20200;-69
2021/04/27 05:03:48;;;;;;;1.60;1.50;;;10.50;66.80;;;;;;5095960;28;20201;-69
2021/04/27 05:06:16;;;;;;;2.72;1.50;;;10.40;66.50;;;;;;5099204;28;20652;-69
2021/04/27 05:08:44;;;;;;;2.20;2.00;;;10.50;66.70;;;;;;5092799;28;20243;-70
2021/04/27 05:11:12;;;;;;;3.40;1.90;;;10.50;66.50;;;;;;5093430;28;20779;-69
2021/04/27 05:13:39;;;;;;;2.50;1.30;;;10.50;66.30;;;;;;5093375;28;20201;-69
2021/04/27 05:16:07;;;;;;;2.50;1.15;;;10.50;66.40;;;;;;5091514;28;20210;-69
2021/04/27 05:18:33;;;;;;;2.47;1.60;;;10.50;66.30;;;;;;5104828;28;20198;-69
2021/04/27 05:20:59;;;;;;;2.30;1.95;;;10.40;66.10;;;;;;5093764;28;20193;-69
2021/04/27 05:23:26;;;;;;;2.15;1.40;;;10.40;66.10;;;;;;5112678;28;20247;-69
2021/04/27 05:25:52;;;;;;;2.22;1.20;;;10.40;66.10;;;;;;5096315;28;20204;-69
2021/04/27 05:28:19;;;;;;;6.28;1.33;;;10.40;65.80;;;;;;5101641;28;20254;-69
2021/04/27 05:30:45;;;;;;;2.85;1.38;;;10.40;65.90;;;;;;5098817;28;20217;-69
2021/04/27 05:33:11;;;;;;;1.60;1.50;;;10.40;65.40;;;;;;5103572;28;20200;-70
2021/04/27 05:35:40;;;;;;;2.63;1.75;;;10.40;65.30;;;;;;5102572;28;20246;-70
2021/04/27 05:38:07;;;;;;;3.25;1.50;;;10.40;66.00;;;;;;5097223;28;20197;-71
2021/04/27 05:40:33;;;;;;;3.35;1.42;;;10.50;65.80;;;;;;5093586;28;20251;-70
2021/04/27 05:42:59;;;;;;;3.67;1.98;;;10.70;64.50;;;;;;5111824;28;20348;-69
2021/04/27 05:45:26;;;;;;;3.45;2.05;;;10.90;63.40;;;;;;5105368;28;20978;-71
2021/04/27 05:47:52;;;;;;;2.67;1.38;;;11.10;62.70;;;;;;5101626;28;20207;-68
2021/04/27 05:50:18;;;;;;;2.53;2.33;;;11.30;61.50;;;;;;5096064;28;20202;-68
2021/04/27 05:52:45;;;;;;;4.80;1.88;;;11.40;61.30;;;;;;5092257;28;20681;-68
2021/04/27 05:55:12;;;;;;;2.67;1.98;;;11.60;60.90;;;;;;5092564;28;20193;-68
2021/04/27 05:57:38;;;;;;;1.60;1.50;;;11.80;60.70;;;;;;5092390;28;20640;-67
2021/04/27 06:00:07;;;;;;;2.55;1.50;;;11.90;59.80;;;;;;5110183;28;20201;-68
2021/04/27 06:02:34;;;;;;;2.65;1.40;;;12.00;59.80;;;;;;5096067;28;20197;-68
2021/04/27 06:05:00;;;;;;;2.78;1.63;;;12.10;59.40;;;;;;5092140;28;20260;-67
2021/04/27 06:07:26;;;;;;;1.88;1.30;;;12.30;59.10;;;;;;5094812;28;20585;-69
2021/04/27 06:09:52;;;;;;;6.30;1.33;;;12.40;58.50;;;;;;5105970;28;20196;-68
2021/04/27 06:12:18;;;;;;;2.25;1.20;;;12.50;58.60;;;;;;5107019;28;20213;-68
2021/04/27 06:14:44;;;;;;;1.83;1.45;;;12.60;58.20;;;;;;5092298;28;20205;-68
2021/04/27 06:17:10;;;;;;;6.13;1.90;;;12.70;58.10;;;;;;5096303;28;20189;-68
2021/04/27 06:19:37;;;;;;;2.08;1.67;;;12.80;57.90;;;;;;5111184;28;20205;-69
2021/04/27 06:22:03;;;;;;;2.08;1.52;;;12.90;57.30;;;;;;5101797;28;20785;-69
2021/04/27 06:24:30;;;;;;;1.30;1.20;;;12.90;56.80;;;;;;5104268;28;20609;-69
2021/04/27 06:26:56;;;;;;;2.28;1.33;;;13.00;57.10;;;;;;5095237;28;20189;-68
2021/04/27 06:29:22;;;;;;;2.45;1.67;;;13.10;57.30;;;;;;5100023;28;20201;-68
2021/04/27 06:31:48;;;;;;;1.60;1.30;;;13.20;57.00;;;;;;5091252;28;20217;-68
2021/04/27 06:34:14;;;;;;;1.77;1.30;;;13.30;56.60;;;;;;5091822;28;20197;-69
2021/04/27 06:36:41;;;;;;;7.07;1.75;;;13.40;56.60;;;;;;5095520;28;20627;-68
2021/04/27 06:39:07;;;;;;;2.17;1.77;;;13.50;56.40;;;;;;5099010;28;20611;-76
2021/04/27 06:41:34;;;;;;;2.95;1.58;;;13.60;56.60;;;;;;5105850;28;20255;-71
2021/04/27 06:44:01;;;;;;;3.90;1.42;;;13.70;56.20;;;;;;5093450;28;20719;-70
2021/04/27 06:46:28;;;;;;;2.00;1.60;;;13.80;56.20;;;;;;5094482;28;20284;-70
2021/04/27 06:48:54;;;;;;;1.75;1.40;;;13.90;56.00;;;;;;5103602;28;20197;-70
2021/04/27 06:51:21;;;;;;;1.92;1.25;;;14.00;55.80;;;;;;5091733;28;20225;-70
2021/04/27 06:53:49;;;;;;;4.35;1.48;;;14.00;55.70;;;;;;5108223;28;20220;-70
2021/04/27 06:56:15;;;;;;;2.63;1.35;;;14.10;56.00;;;;;;5104864;28;20192;-70
2021/04/27 06:58:42;;;;;;;2.05;1.20;;;14.20;55.80;;;;;;5094352;28;20189;-71
2021/04/27 07:01:08;;;;;;;1.85;1.23;;;14.20;55.20;;;;;;5095093;28;20189;-70
2021/04/27 07:03:35;;;;;;;2.65;1.45;;;14.30;55.40;;;;;;5098083;28;21743;-71
2021/04/27 07:06:01;;;;;;;1.50;1.40;;;14.30;55.10;;;;;;5100536;28;20510;-70
2021/04/27 07:08:28;;;;;;;2.63;1.13;;;14.30;55.20;;;;;;5098621;28;20196;-70
2021/04/27 07:10:57;;;;;;;2.03;1.48;;;14.40;55.20;;;;;;5092795;28;20700;-70
2021/04/27 07:13:23;;;;;;;2.75;1.55;;;14.50;54.80;;;;;;5098872;28;20200;-70
2021/04/27 07:15:49;;;;;;;1.90;1.40;;;14.60;54.80;;;;;;5094631;28;20260;-70
2021/04/27 07:18:16;;;;;;;3.75;1.48;;;14.60;54.60;;;;;;5105877;28;20204;-70
2021/04/27 07:20:43;;;;;;;3.90;2.15;;;14.70;54.40;;;;;;5093617;28;20190;-70
2021/04/27 07:23:09;;;;;;;1.60;1.30;;;14.70;53.90;;;;;;5093632;28;20229;-70
2021/04/27 07:25:36;;;;;;;2.50;1.10;;;14.70;54.20;;;;;;5099280;28;20200;-71
2021/04/27 07:28:04;;;;;;;3.65;1.15;;;14.80;54.50;;;;;;5110413;28;20201;-71
2021/04/27 07:30:31;;;;;;;1.55;1.10;;;14.80;54.20;;;;;;5108094;28;20244;-71
2021/04/27 07:32:57;;;;;;;1.38;1.20;;;14.90;53.90;;;;;;5099235;28;20577;-71
2021/04/27 07:35:24;;;;;;;4.20;1.48;;;15.00;54.00;;;;;;5096347;28;20209;-69
2021/04/27 07:37:50;;;;;;;1.90;1.17;;;15.00;53.70;;;;;;5093896;28;20664;-69
2021/04/27 07:40:17;;;;;;;3.22;2.00;;;15.10;54.10;;;;;;5095966;28;20205;-70
2021/04/27 07:42:43;;;;;;;2.20;1.40;;;15.20;54.30;;;;;;5100628;27;20188;-73
2021/04/27 07:45:13;;;;;;;2.78;1.90;;;15.20;53.10;;;;;;5095271;28;20216;-70
2021/04/27 07:47:39;;;;;;;5.65;1.75;;;15.30;53.20;;;;;;5099924;28;20208;-68
2021/04/27 07:50:08;;;;;;;2.25;1.10;;;15.30;52.70;;;;;;5102621;28;20615;-69
2021/04/27 07:52:35;;;;;;;2.08;1.70;;;15.30;53.70;;;;;;5101694;28;20217;-69
2021/04/27 07:55:02;;;;;;;2.80;1.60;;;15.40;53.00;;;;;;5107933;28;20215;-69
2021/04/27 07:57:28;;;;;;;2.13;1.50;;;15.40;52.40;;;;;;5102767;28;20255;-69
2021/04/27 07:59:54;;;;;;;1.48;1.38;;;15.50;53.40;;;;;;5090765;28;20201;-71
2021/04/27 08:02:21;;;;;;;2.55;1.60;;;15.50;52.90;;;;;;5092047;28;20201;-69
2021/04/27 08:04:48;;;;;;;5.75;1.40;;;15.50;52.90;;;;;;5100709;28;20257;-71
2021/04/27 08:07:14;;;;;;;2.15;1.80;;;15.50;53.00;;;;;;5111510;28;20245;-70
2021/04/27 08:09:40;;;;;;;5.07;1.38;;;15.50;52.40;;;;;;5096926;28;20213;-68
2021/04/27 08:12:07;;;;;;;1.80;1.10;;;15.50;52.50;;;;;;5095699;28;20209;-70
2021/04/27 08:14:33;;;;;;;1.83;1.63;;;15.60;52.50;;;;;;5094063;28;20201;-70
2021/04/27 08:17:01;;;;;;;4.35;1.77;;;15.60;52.70;;;;;;5095703;28;20201;-70
2021/04/27 08:19:28;;;;;;;4.07;1.70;;;15.60;52.50;;;;;;5099409;28;20209;-70
2021/04/27 08:21:55;;;;;;;1.65;1.33;;;15.70;51.80;;;;;;5099261;28;20196;-70
2021/04/27 08:24:21;;;;;;;1.20;1.10;;;15.70;52.80;;;;;;5100461;28;20246;-70
2021/04/27 08:26:47;;;;;;;7.72;1.40;;;15.70;52.10;;;;;;5106286;28;20211;-69
2021/04/27 08:29:13;;;;;;;1.75;1.50;;;15.80;51.50;;;;;;5096259;28;20200;-69
2021/04/27 08:31:39;;;;;;;3.05;1.60;;;15.80;51.20;;;;;;5105008;28;20607;-69
2021/04/27 08:34:06;;;;;;;1.92;1.27;;;15.80;51.00;;;;;;5094039;28;20198;-69
2021/04/27 08:36:33;;;;;;;2.25;1.63;;;15.80;51.70;;;;;;5093800;28;20202;-69
2021/04/27 08:38:59;;;;;;;5.53;1.45;;;15.80;51.10;;;;;;5092825;28;20193;-69
2021/04/27 08:41:26;;;;;;;9.15;1.80;;;15.70;51.50;;;;;;5105200;28;20200;-69
2021/04/27 08:43:52;;;;;;;10.20;1.80;;;15.80;52.30;;;;;;5113216;28;20211;-69
2021/04/27 08:46:19;;;;;;;1.65;1.15;;;15.80;50.80;;;;;;5094084;28;20213;-69
2021/04/27 08:48:45;;;;;;;5.55;1.80;;;15.80;51.50;;;;;;5093807;28;20197;-69
2021/04/27 08:51:13;;;;;;;2.35;2.13;;;15.80;52.20;;;;;;5094002;28;20214;-69
2021/04/27 08:53:40;;;;;;;1.50;1.40;;;15.80;51.40;;;;;;5099212;28;20633;-69
2021/04/27 08:56:06;;;;;;;4.47;2.35;;;15.80;51.50;;;;;;5099414;28;20196;-69
2021/04/27 08:58:33;;;;;;;2.90;1.42;;;15.90;51.10;;;;;;5107436;28;20189;-69
2021/04/27 09:00:59;;;;;;;1.65;1.20;;;15.90;51.00;;;;;;5110104;28;20633;-69
2021/04/27 09:03:25;;;;;;;3.28;1.50;;;15.90;51.70;;;;;;5099046;28;20261;-69
2021/04/27 09:05:52;;;;;;;3.30;1.33;;;15.90;51.40;;;;;;5099228;28;20197;-69
2021/04/27 09:08:34;;;;;;;2.55;1.23;;;15.90;51.90;;;;;;5110658;28;20696;-69
2021/04/27 09:11:01;;;;;;;4.40;1.70;;;15.90;52.20;;;;;;5104718;28;20232;-69
2021/04/27 09:13:27;;;;;;;5.78;1.65;;;15.90;51.70;;;;;;5093330;28;20201;-70
2021/04/27 09:15:54;;;;;;;2.75;1.85;;;15.90;51.10;;;;;;5100331;28;20189;-69
2021/04/27 09:18:27;;;;;;;1.52;1.00;;;15.90;51.40;;;;;;5103332;28;20197;-69
2021/04/27 09:20:57;;;;;;;3.30;1.90;;;15.80;51.10;;;;;;5093468;28;20197;-69
2021/04/27 09:23:23;;;;;;;2.50;1.63;;;15.80;50.30;;;;;;5093192;28;20741;-69
2021/04/27 09:26:19;;;;;;;3.25;1.58;;;15.80;50.50;;;;;;5107990;28;20734;-69
2021/04/27 09:28:47;;;;;;;2.83;2.08;;;15.70;49.80;;;;;;5048838;28;20206;-68
2021/04/27 09:31:25;;;;;;;2.55;1.50;;;15.70;49.80;;;;;;5108415;28;20216;-68
2021/04/27 09:33:52;;;;;;;4.38;2.10;;;15.70;52.10;;;;;;5107477;28;20199;-68
2021/04/27 09:36:20;;;;;;;1.70;1.50;;;15.70;49.90;;;;;;5108681;28;20189;-68
2021/04/27 09:38:46;;;;;;;1.60;1.35;;;15.70;50.80;;;;;;5098656;28;20221;-68
2021/04/27 09:41:13;;;;;;;1.77;1.40;;;15.70;51.80;;;;;;5104656;28;20193;-68
2021/04/27 09:43:41;;;;;;;3.05;1.40;;;15.70;50.10;;;;;;5098307;28;20201;-68
2021/04/27 09:46:10;;;;;;;2.17;1.75;;;15.70;50.50;;;;;;5101054;28;20203;-68
2021/04/27 09:48:38;;;;;;;4.63;1.50;;;15.60;50.90;;;;;;5104892;28;20200;-68
2021/04/27 09:51:19;;;;;;;1.77;1.55;;;15.60;51.10;;;;;;5094319;28;20201;-68
2021/04/27 09:53:47;;;;;;;2.80;1.27;;;15.60;50.30;;;;;;5103513;28;20259;-69
2021/04/27 09:56:31;;;;;;;1.67;1.10;;;15.60;50.00;;;;;;5096576;28;20197;-69
2021/04/27 09:59:03;;;;;;;2.25;1.60;;;15.50;50.80;;;;;;5102872;28;20193;-68
2021/04/27 10:01:30;;;;;;;4.15;1.70;;;15.60;51.30;;;;;;5097428;28;20567;-68
2021/04/27 10:03:56;;;;;;;2.40;1.70;;;15.60;50.40;;;;;;5099509;28;20197;-68
2021/04/27 10:06:22;;;;;;;1.98;1.27;;;15.60;50.00;;;;;;5095787;28;20212;-68
2021/04/27 10:08:49;;;;;;;2.97;1.35;;;15.60;50.40;;;;;;5110447;28;20587;-68
2021/04/27 10:11:16;;;;;;;1.58;1.42;;;15.60;51.30;;;;;;5101924;28;20209;-68
2021/04/27 10:13:42;;;;;;;1.13;1.02;;;15.50;51.60;;;;;;5107671;28;20205;-69
2021/04/27 10:16:09;;;;;;;1.73;1.30;;;15.50;51.30;;;;;;5095244;28;20258;-67
2021/04/27 10:18:35;;;;;;;2.22;1.55;;;15.50;51.00;;;;;;5091036;28;20641;-68
2021/04/27 10:21:04;;;;;;;2.97;1.30;;;15.50;50.90;;;;;;5098511;28;20210;-71
2021/04/27 10:23:31;;;;;;;2.55;1.20;;;15.50;50.80;;;;;;5101085;28;20227;-70
2021/04/27 10:25:57;;;;;;;1.75;1.20;;;15.50;51.20;;;;;;5102112;28;20189;-68
2021/04/27 10:28:24;;;;;;;4.78;2.00;;;15.50;51.60;;;;;;5099268;28;20242;-70
2021/04/27 10:30:50;;;;;;;2.55;2.35;;;15.50;51.50;;;;;;5110366;28;20201;-70
2021/04/27 10:33:23;;;;;;;2.45;1.30;;;15.40;51.00;;;;;;5098739;28;20228;-70
2021/04/27 10:36:05;;;;;;;1.98;1.20;;;15.40;51.10;;;;;;5090624;28;20189;-70
2021/04/27 10:38:42;;;;;;;3.63;1.70;;;15.40;50.00;;;;;;5094944;28;21066;-70
2021/04/27 10:41:12;;;;;;;1.80;1.40;;;15.30;50.50;;;;;;5094006;28;20204;-69
2021/04/27 10:43:57;;;;;;;3.55;1.70;;;15.30;50.30;;;;;;5105908;28;20257;-70
2021/04/27 10:46:58;;;;;;;1.63;1.30;;;15.30;50.90;;;;;;5092246;28;20232;-70
2021/04/27 10:49:31;;;;;;;1.67;1.30;;;15.30;51.90;;;;;;5096627;28;20204;-71
2021/04/27 10:51:59;;;;;;;2.05;1.23;;;15.30;51.80;;;;;;5091157;28;20225;-71
2021/04/27 10:54:29;;;;;;;2.70;1.30;;;15.30;51.90;;;;;;5099519;28;20919;-70
2021/04/27 10:57:11;;;;;;;1.85;1.67;;;15.30;51.30;;;;;;5103276;28;20201;-70
2021/04/27 10:59:50;;;;;;;2.33;1.60;;;15.30;52.30;;;;;;5101812;28;20186;-70
2021/04/27 11:02:19;;;;;;;2.85;1.50;;;15.30;50.50;;;;;;5088241;28;20193;-70
2021/04/27 11:04:48;;;;;;;1.67;1.58;;;15.30;50.70;;;;;;5105763;28;20204;-68
2021/04/27 11:07:35;;;;;;;2.08;1.70;;;15.20;50.70;;;;;;5109688;28;20208;-71
2021/04/27 11:10:23;;;;;;;6.40;1.70;;;15.20;49.40;;;;;;5098382;28;20253;-69
2021/04/27 11:13:08;;;;;;;2.88;1.40;;;15.20;49.80;;;;;;5109851;28;20213;-69
2021/04/27 11:15:36;;;;;;;2.15;1.67;;;15.10;49.90;;;;;;5108064;28;20220;-69
2021/04/27 11:18:09;;;;;;;1.77;1.35;;;15.10;50.30;;;;;;5095162;28;20202;-69
2021/04/27 11:20:52;;;;;;;2.88;1.55;;;15.10;49.80;;;;;;5103361;28;20193;-69
2021/04/27 11:23:35;;;;;;;2.00;1.40;;;15.10;50.30;;;;;;5104963;28;20244;-69
2021/04/27 11:26:03;;;;;;;2.60;1.50;;;15.10;50.10;;;;;;5101926;28;20215;-68
2021/04/27 11:28:54;;;;;;;4.22;1.90;;;15.10;49.20;;;;;;5106502;28;20197;-68
2021/04/27 11:31:21;;;;;;;2.00;1.75;;;15.00;49.50;;;;;;5103543;28;20307;-69
2021/04/27 11:33:55;;;;;;;1.92;1.50;;;15.10;49.70;;;;;;5100667;28;20197;-69
2021/04/27 11:36:37;;;;;;;2.63;1.50;;;15.00;49.70;;;;;;5102485;28;20196;-69
2021/04/27 11:39:11;;;;;;;4.40;1.90;;;15.00;49.80;;;;;;5096181;28;20193;-68
2021/04/27 11:41:47;;;;;;;3.72;1.50;;;15.00;49.70;;;;;;5092003;28;20205;-69
2021/04/27 11:44:14;;;;;;;5.15;1.40;;;15.00;49.80;;;;;;5106325;28;20805;-69
2021/04/27 11:47:00;;;;;;;5.03;1.70;;;15.00;50.10;;;;;;5107810;28;20205;-68
2021/04/27 11:49:56;;;;;;;1.73;1.63;;;15.00;50.20;;;;;;5099632;28;20672;-68
2021/04/27 11:52:48;;;;;;;2.97;2.00;;;15.00;49.40;;;;;;5096593;28;20198;-68
2021/04/27 11:55:26;;;;;;;3.47;2.10;;;15.00;49.70;;;;;;5107396;28;20204;-69
2021/04/27 11:57:56;;;;;;;1.75;1.50;;;15.00;49.60;;;;;;5095793;28;20413;-68
2021/04/27 12:00:29;;;;;;;4.13;1.30;;;14.90;49.60;;;;;;5109394;28;20541;-69
2021/04/27 12:02:55;;;;;;;2.15;1.50;;;14.90;49.90;;;;;;5101906;28;20185;-69
2021/04/27 12:05:22;;;;;;;1.88;1.55;;;14.90;50.10;;;;;;5097876;28;20208;-69
2021/04/27 12:07:49;;;;;;;5.50;2.10;;;14.90;50.10;;;;;;5105143;28;20219;-69
2021/04/27 12:10:15;;;;;;;1.60;1.50;;;14.90;50.00;;;;;;5110725;28;20924;-69
2021/04/27 12:12:46;;;;;;;3.05;1.55;;;14.90;50.10;;;;;;5108890;28;20219;-69
2021/04/27 12:15:13;;;;;;;1.75;1.60;;;14.90;50.40;;;;;;5095871;28;20227;-68
2021/04/27 12:17:39;;;;;;;2.70;1.38;;;14.90;50.10;;;;;;5097371;28;20200;-69
2021/04/27 12:20:11;;;;;;;3.50;1.80;;;14.90;49.70;;;;;;5109310;28;20629;-69
2021/04/27 12:22:43;;;;;;;3.05;1.60;;;14.90;49.80;;;;;;5108501;28;20557;-69
2021/04/27 12:25:21;;;;;;;2.03;1.55;;;14.90;49.60;;;;;;5098318;28;20193;-69
2021/04/27 12:27:49;;;;;;;2.00;1.27;;;14.80;49.70;;;;;;5094571;28;20273;-69
2021/04/27 12:30:17;;;;;;;3.50;1.85;;;14.90;50.50;;;;;;5090105;28;20196;-69
2021/04/27 12:32:48;;;;;;;3.25;1.75;;;14.90;50.30;;;;;;5089338;28;20282;-69
2021/04/27 12:35:22;;;;;;;2.53;1.55;;;14.90;50.70;;;;;;5097238;28;20812;-69
2021/04/27 12:38:03;;;;;;;2.25;2.05;;;14.90;50.30;;;;;;5100322;28;20194;-69
2021/04/27 12:40:32;;;;;;;2.10;1.70;;;14.90;49.90;;;;;;5093311;28;20333;-70
2021/04/27 12:43:02;;;;;;;5.90;1.60;;;14.90;49.70;;;;;;5104123;28;20185;-69
2021/04/27 12:45:40;;;;;;;3.70;1.98;;;14.80;49.70;;;;;;5109418;28;20181;-69
2021/04/27 12:48:07;;;;;;;2.10;1.60;;;14.80;50.10;;;;;;5097428;28;20198;-69
2021/04/27 12:50:34;;;;;;;2.40;1.52;;;14.90;50.60;;;;;;5097537;28;20200;-69
2021/04/27 12:53:03;;;;;;;2.50;1.58;;;14.90;50.40;;;;;;5096640;28;20224;-69
2021/04/27 12:55:32;;;;;;;1.77;1.67;;;14.80;50.10;;;;;;5102723;28;20279;-71